createdAt,value
2022-10-06T00:01:09.968Z,8.48
2022-10-06T00:03:38.579Z,8.53
2022-10-06T00:06:07.012Z,8.54
2022-10-06T00:08:37.850Z,8.22
2022-10-06T00:11:06.222Z,8.54
2022-10-06T00:13:33.539Z,8.53
2022-10-06T00:16:00.914Z,8.32
2022-10-06T00:18:29.765Z,8.50
2022-10-06T00:20:58.913Z,8.12
2022-10-06T00:23:26.862Z,8.35
2022-10-06T00:25:53.777Z,8.22
2022-10-06T00:28:21.000Z,7.96
2022-10-06T00:30:48.126Z,8.16
2022-10-06T00:33:17.920Z,8.24
2022-10-06T00:35:46.702Z,8.18
2022-10-06T00:38:16.591Z,8.34
2022-10-06T00:40:46.991Z,8.04
2022-10-06T00:44:02.066Z,8.29
2022-10-06T00:46:46.465Z,8.28
2022-10-06T00:49:30.823Z,8.15
2022-10-06T00:52:07.140Z,8.25
2022-10-06T00:54:36.201Z,8.25
2022-10-06T00:57:04.986Z,7.99
2022-10-06T00:59:32.331Z,8.11
2022-10-06T01:02:08.567Z,8.06
2022-10-06T01:04:38.608Z,8.17
2022-10-06T01:07:07.683Z,8.17
2022-10-06T01:09:36.817Z,8.18
2022-10-06T01:12:07.443Z,8.09
2022-10-06T01:14:37.615Z,7.92
2022-10-06T01:17:23.857Z,7.86
2022-10-06T01:20:12.890Z,7.96
2022-10-06T01:22:43.849Z,7.84
2022-10-06T01:25:14.330Z,7.78
2022-10-06T01:27:44.572Z,8.00
2022-10-06T01:30:16.449Z,8.06
2022-10-06T01:32:44.287Z,7.91
2022-10-06T01:35:11.686Z,8.06
2022-10-06T01:37:39.889Z,8.06
2022-10-06T01:40:07.305Z,7.93
2022-10-06T01:42:36.534Z,7.98
2022-10-06T01:45:05.549Z,7.77
2022-10-06T01:47:34.002Z,7.86
2022-10-06T01:50:01.223Z,7.89
2022-10-06T01:52:29.944Z,7.91
2022-10-06T01:54:57.070Z,7.77
2022-10-06T01:57:24.632Z,8.00
2022-10-06T01:59:54.722Z,7.96
2022-10-06T02:02:23.688Z,7.70
2022-10-06T02:04:50.810Z,7.74
2022-10-06T02:07:18.993Z,7.72
2022-10-06T02:09:46.893Z,7.74
2022-10-06T02:12:14.864Z,7.53
2022-10-06T02:14:42.355Z,7.81
2022-10-06T02:17:10.148Z,7.91
2022-10-06T02:19:37.067Z,7.46
2022-10-06T02:22:04.478Z,7.68
2022-10-06T02:24:31.488Z,7.62
2022-10-06T02:26:58.676Z,7.73
2022-10-06T02:29:26.210Z,7.60
2022-10-06T02:31:55.847Z,7.50
2022-10-06T02:34:23.768Z,7.65
2022-10-06T02:36:52.546Z,7.78
2022-10-06T02:39:19.581Z,7.65
2022-10-06T02:41:46.749Z,7.69
2022-10-06T02:44:14.200Z,7.40
2022-10-06T02:46:43.336Z,7.53
2022-10-06T02:49:11.315Z,7.61
2022-10-06T02:51:38.683Z,7.49
2022-10-06T02:54:05.636Z,7.63
2022-10-06T02:56:34.594Z,7.61
2022-10-06T02:59:01.516Z,7.60
2022-10-06T03:01:32.623Z,7.60
2022-10-06T03:04:07.324Z,7.62
2022-10-06T03:06:34.791Z,7.60
2022-10-06T03:09:09.784Z,7.60
2022-10-06T03:11:42.861Z,7.57
2022-10-06T03:14:16.584Z,7.56
2022-10-06T03:16:46.144Z,7.52
2022-10-06T03:19:18.976Z,7.54
2022-10-06T03:21:47.167Z,7.29
2022-10-06T03:24:14.771Z,7.30
2022-10-06T03:26:47.706Z,7.45
2022-10-06T03:29:16.482Z,7.35
2022-10-06T03:31:48.391Z,7.40
2022-10-06T03:34:15.674Z,7.43
2022-10-06T03:36:44.452Z,7.26
2022-10-06T03:39:12.111Z,7.38
2022-10-06T03:41:40.028Z,7.40
2022-10-06T03:44:09.063Z,7.04
2022-10-06T03:46:38.652Z,7.39
2022-10-06T03:49:07.289Z,7.27
2022-10-06T03:51:39.661Z,7.31
2022-10-06T03:54:11.065Z,7.36
2022-10-06T03:56:41.798Z,7.26
2022-10-06T03:59:13.403Z,7.35
2022-10-06T04:01:45.089Z,7.38
2022-10-06T04:04:14.836Z,7.33
2022-10-06T04:06:44.809Z,7.34
2022-10-06T04:09:16.252Z,7.33
2022-10-06T04:11:44.797Z,7.30
2022-10-06T04:14:15.585Z,7.32
2022-10-06T04:16:45.794Z,7.31
2022-10-06T04:19:16.292Z,7.31
2022-10-06T04:21:48.341Z,7.21
2022-10-06T04:24:19.302Z,7.21
2022-10-06T04:26:52.459Z,7.30
2022-10-06T04:29:20.670Z,7.17
2022-10-06T04:31:54.521Z,7.09
2022-10-06T04:34:26.648Z,7.28
2022-10-06T04:36:54.057Z,7.13
2022-10-06T04:39:21.363Z,7.08
2022-10-06T04:41:49.119Z,7.30
2022-10-06T04:44:23.451Z,7.30
2022-10-06T04:46:52.025Z,7.29
2022-10-06T04:49:20.859Z,7.31
2022-10-06T04:51:51.510Z,7.12
2022-10-06T04:54:19.453Z,7.30
2022-10-06T04:56:50.052Z,7.19
2022-10-06T04:59:19.178Z,7.14
2022-10-06T05:01:48.201Z,7.13
2022-10-06T05:04:15.189Z,7.29
2022-10-06T05:06:43.097Z,7.33
2022-10-06T05:09:16.019Z,7.21
2022-10-06T05:11:53.043Z,7.09
2022-10-06T05:14:21.559Z,7.32
2022-10-06T05:16:49.827Z,7.13
2022-10-06T05:19:17.083Z,7.30
2022-10-06T05:21:44.377Z,7.37
2022-10-06T05:24:18.544Z,7.17
2022-10-06T05:26:45.689Z,7.42
2022-10-06T05:29:15.017Z,7.21
2022-10-06T05:31:43.830Z,7.49
2022-10-06T05:34:11.773Z,7.29
2022-10-06T05:36:39.160Z,7.56
2022-10-06T05:39:07.563Z,7.42
2022-10-06T05:41:39.711Z,7.61
2022-10-06T05:44:09.343Z,7.72
2022-10-06T05:46:38.523Z,7.84
2022-10-06T05:49:14.795Z,7.89
2022-10-06T05:52:00.055Z,7.92
2022-10-06T05:54:29.790Z,8.03
2022-10-06T05:56:56.775Z,7.95
2022-10-06T05:59:23.927Z,8.08
2022-10-06T06:01:53.365Z,8.11
2022-10-06T06:04:31.809Z,8.13
2022-10-06T06:06:58.750Z,8.29
2022-10-06T06:09:28.878Z,8.11
2022-10-06T06:12:00.489Z,8.25
2022-10-06T06:15:06.183Z,8.37
2022-10-06T06:17:38.563Z,8.49
2022-10-06T06:20:07.186Z,8.46
2022-10-06T06:22:36.017Z,8.67
2022-10-06T06:25:05.180Z,8.66
2022-10-06T06:27:32.352Z,8.76
2022-10-06T06:29:59.499Z,8.61
2022-10-06T06:32:28.112Z,8.80
2022-10-06T06:34:56.010Z,8.78
2022-10-06T06:37:23.097Z,8.84
2022-10-06T06:39:50.043Z,9.00
2022-10-06T06:42:17.736Z,9.15
2022-10-06T06:44:47.646Z,9.17
2022-10-06T06:47:26.820Z,9.07
2022-10-06T06:49:55.082Z,9.13
2022-10-06T06:52:26.198Z,9.28
2022-10-06T06:54:53.959Z,9.40
2022-10-06T06:57:21.203Z,9.45
2022-10-06T06:59:50.715Z,9.15
2022-10-06T07:02:18.990Z,9.48
2022-10-06T07:04:47.750Z,9.33
2022-10-06T07:07:16.966Z,9.60
2022-10-06T07:09:43.961Z,9.68
2022-10-06T07:12:12.708Z,9.78
2022-10-06T07:15:09.052Z,9.66
2022-10-06T07:17:58.640Z,9.81
2022-10-06T07:20:44.169Z,10.02
2022-10-06T07:23:37.557Z,10.07
2022-10-06T07:26:07.795Z,10.42
2022-10-06T07:28:34.818Z,10.45
2022-10-06T07:31:02.059Z,10.41
2022-10-06T07:33:32.843Z,10.63
2022-10-06T07:36:03.757Z,10.77
2022-10-06T07:38:32.529Z,10.62
2022-10-06T07:41:19.295Z,10.90
2022-10-06T07:43:50.869Z,11.08
2022-10-06T07:46:19.501Z,11.12
2022-10-06T07:49:06.959Z,11.27
2022-10-06T07:51:33.975Z,11.26
2022-10-06T07:54:02.943Z,11.32
2022-10-06T07:56:40.054Z,11.44
2022-10-06T07:59:07.212Z,11.47
2022-10-06T08:01:34.304Z,11.55
2022-10-06T08:04:02.602Z,11.73
2022-10-06T08:06:29.666Z,11.76
2022-10-06T08:08:56.790Z,11.99
2022-10-06T08:11:24.007Z,11.92
2022-10-06T08:13:52.274Z,12.16
2022-10-06T08:16:23.331Z,12.12
2022-10-06T08:18:54.996Z,12.42
2022-10-06T08:21:30.863Z,12.41
2022-10-06T08:23:59.558Z,12.54
2022-10-06T08:26:28.214Z,12.58
2022-10-06T08:29:03.344Z,12.88
2022-10-06T08:31:31.414Z,13.08
2022-10-06T08:33:58.894Z,13.11
2022-10-06T08:36:31.335Z,13.38
2022-10-06T08:38:59.347Z,13.48
2022-10-06T08:41:32.361Z,13.63
2022-10-06T08:44:07.687Z,13.62
2022-10-06T08:46:43.207Z,13.91
2022-10-06T08:49:20.511Z,14.03
2022-10-06T08:52:14.446Z,14.14
2022-10-06T08:54:41.460Z,14.24
2022-10-06T08:57:19.645Z,14.31
2022-10-06T08:59:49.634Z,14.48
2022-10-06T09:02:24.339Z,14.52
2022-10-06T09:04:51.448Z,14.65
2022-10-06T09:07:32.301Z,14.78
2022-10-06T09:10:20.523Z,14.90
2022-10-06T09:12:51.804Z,14.98
2022-10-06T09:15:27.836Z,15.09
2022-10-06T09:18:02.157Z,15.17
2022-10-06T09:20:43.151Z,15.18
2022-10-06T09:23:16.941Z,15.11
2022-10-06T09:25:45.044Z,15.39
2022-10-06T09:28:16.019Z,15.44
2022-10-06T09:30:43.739Z,15.70
2022-10-06T09:33:21.029Z,15.61
2022-10-06T09:36:10.235Z,15.88
2022-10-06T09:38:54.568Z,16.00
2022-10-06T09:41:27.338Z,16.09
2022-10-06T09:43:57.892Z,16.20
2022-10-06T09:46:34.399Z,16.26
2022-10-06T09:49:07.561Z,16.40
2022-10-06T09:51:36.351Z,16.21
2022-10-06T09:54:11.160Z,16.51
2022-10-06T09:56:47.323Z,16.65
2022-10-06T09:59:34.058Z,16.68
2022-10-06T10:02:05.122Z,16.74
2022-10-06T10:04:38.258Z,16.81
2022-10-06T10:07:16.821Z,16.78
2022-10-06T10:09:44.342Z,16.86
2022-10-06T10:12:31.023Z,16.82
2022-10-06T10:15:25.776Z,17.01
2022-10-06T10:18:12.801Z,17.05
2022-10-06T10:20:52.297Z,17.15
2022-10-06T10:23:31.617Z,17.11
2022-10-06T10:26:08.237Z,17.27
2022-10-06T10:29:09.476Z,17.34
2022-10-06T10:31:42.245Z,17.24
2022-10-06T10:34:24.683Z,17.36
2022-10-06T10:36:59.897Z,17.54
2022-10-06T10:39:26.717Z,17.63
2022-10-06T10:41:56.965Z,17.45
2022-10-06T10:44:31.926Z,17.65
2022-10-06T10:47:06.167Z,17.72
2022-10-06T10:49:35.389Z,17.49
2022-10-06T10:52:14.335Z,17.73
2022-10-06T10:54:53.473Z,17.82
2022-10-06T10:57:35.287Z,17.90
2022-10-06T11:00:07.633Z,17.82
2022-10-06T11:02:35.915Z,18.05
2022-10-06T11:05:43.216Z,18.03
2022-10-06T11:08:23.234Z,18.04
2022-10-06T11:10:57.592Z,17.97
2022-10-06T11:13:40.913Z,18.17
2022-10-06T11:16:23.110Z,18.18
2022-10-06T11:19:24.457Z,18.17
2022-10-06T11:22:34.677Z,18.27
2022-10-06T11:25:16.985Z,18.28
2022-10-06T11:27:51.194Z,18.22
2022-10-06T11:30:20.245Z,18.39
2022-10-06T11:33:04.543Z,18.45
2022-10-06T11:35:37.691Z,18.41
2022-10-06T11:38:47.670Z,18.43
2022-10-06T11:41:28.271Z,18.37
2022-10-06T11:44:00.675Z,18.59
2022-10-06T11:46:45.062Z,18.57
2022-10-06T11:49:30.489Z,18.56
2022-10-06T11:52:24.358Z,18.61
2022-10-06T11:54:55.117Z,18.68
2022-10-06T11:57:30.543Z,18.75
2022-10-06T12:00:16.303Z,18.73
2022-10-06T12:02:45.687Z,18.62
2022-10-06T12:05:55.179Z,18.70
2022-10-06T12:08:00.776Z,18.83
2022-10-06T12:10:27.635Z,18.93
2022-10-06T12:13:06.814Z,18.97
2022-10-06T12:18:43.132Z,19.01
2022-10-06T12:21:30.494Z,18.93
2022-10-06T12:24:06.405Z,19.02
2022-10-06T12:26:44.850Z,18.79
2022-10-06T12:29:49.206Z,18.96
2022-10-06T12:32:37.050Z,18.92
2022-10-06T12:35:25.424Z,18.98
2022-10-06T12:37:58.503Z,18.72
2022-10-06T12:40:55.599Z,18.85
2022-10-06T12:43:22.661Z,18.79
2022-10-06T12:46:16.889Z,18.79
2022-10-06T12:49:05.001Z,18.73
2022-10-06T12:51:38.985Z,18.76
2022-10-06T12:54:11.695Z,18.75
2022-10-06T12:56:41.280Z,18.52
2022-10-06T12:59:40.106Z,18.57
2022-10-06T13:02:25.830Z,18.68
2022-10-06T13:04:54.550Z,18.72
2022-10-06T13:07:22.056Z,18.82
2022-10-06T13:09:52.472Z,18.70
2022-10-06T13:12:29.999Z,18.16
2022-10-06T13:15:34.748Z,18.26
2022-10-06T13:18:07.643Z,18.49
2022-10-06T13:20:41.259Z,18.26
2022-10-06T13:23:30.355Z,18.45
2022-10-06T13:26:00.170Z,18.54
2022-10-06T13:28:44.844Z,18.42
2022-10-06T13:31:35.258Z,18.21
2022-10-06T13:34:10.204Z,18.54
2022-10-06T13:36:38.931Z,18.57
2022-10-06T13:39:24.597Z,17.85
2022-10-06T13:41:53.649Z,17.89
2022-10-06T13:44:36.019Z,18.20
2022-10-06T13:47:07.456Z,17.68
2022-10-06T13:49:47.436Z,17.80
2022-10-06T13:52:21.803Z,17.99
2022-10-06T13:54:58.059Z,17.77
2022-10-06T13:57:43.547Z,17.86
2022-10-06T14:00:23.825Z,17.84
2022-10-06T14:02:54.993Z,17.79
2022-10-06T14:05:27.042Z,17.74
2022-10-06T14:08:00.860Z,18.07
2022-10-06T14:10:31.430Z,17.72
2022-10-06T14:13:02.386Z,18.01
2022-10-06T14:15:36.449Z,17.86
2022-10-06T14:18:05.143Z,17.94
2022-10-06T14:20:48.196Z,17.73
2022-10-06T14:23:44.442Z,17.50
2022-10-06T14:26:14.086Z,17.36
2022-10-06T14:28:46.729Z,17.52
2022-10-06T14:31:14.812Z,17.40
2022-10-06T14:33:42.214Z,17.41
2022-10-06T14:36:16.960Z,17.37
2022-10-06T14:38:47.033Z,17.31
2022-10-06T14:41:18.851Z,17.28
2022-10-06T14:43:47.622Z,17.07
2022-10-06T14:46:15.734Z,17.14
2022-10-06T14:48:42.838Z,16.95
2022-10-06T14:51:10.585Z,17.07
2022-10-06T14:53:39.494Z,16.97
2022-10-06T14:56:10.117Z,16.96
2022-10-06T14:58:44.278Z,16.99
2022-10-06T15:01:13.219Z,16.92
2022-10-06T15:03:41.869Z,16.77
2022-10-06T15:06:30.120Z,16.75
2022-10-06T15:08:58.934Z,16.74
2022-10-06T15:11:28.304Z,16.66
2022-10-06T15:13:57.397Z,16.62
2022-10-06T15:16:29.934Z,16.59
2022-10-06T15:18:59.348Z,16.52
2022-10-06T15:21:27.400Z,16.53
2022-10-06T15:23:59.138Z,16.48
2022-10-06T15:26:45.638Z,16.47
2022-10-06T15:29:13.837Z,16.42
2022-10-06T15:31:54.826Z,16.25
2022-10-06T15:34:25.253Z,16.34
2022-10-06T15:36:54.096Z,16.26
2022-10-06T15:39:23.825Z,16.20
2022-10-06T15:41:51.434Z,16.12
2022-10-06T15:44:19.729Z,16.17
2022-10-06T15:47:06.066Z,15.97
2022-10-06T15:49:38.123Z,15.76
2022-10-06T15:52:06.489Z,15.77
2022-10-06T15:54:38.930Z,15.94
2022-10-06T15:57:13.896Z,15.68
2022-10-06T15:59:44.160Z,15.67
2022-10-06T16:02:17.106Z,15.65
2022-10-06T16:04:45.265Z,15.50
2022-10-06T16:07:15.269Z,15.46
2022-10-06T16:09:44.327Z,15.13
2022-10-06T16:12:14.093Z,14.95
2022-10-06T16:14:41.075Z,14.85
2022-10-06T16:17:09.803Z,14.76
2022-10-06T16:19:37.269Z,14.36
2022-10-06T16:22:06.463Z,14.51
2022-10-06T16:24:33.726Z,14.43
2022-10-06T16:27:01.314Z,14.49
2022-10-06T16:29:28.569Z,14.21
2022-10-06T16:31:56.019Z,14.18
2022-10-06T16:34:23.393Z,14.12
2022-10-06T16:36:50.326Z,14.19
2022-10-06T16:39:21.956Z,14.20
2022-10-06T16:41:50.181Z,14.10
2022-10-06T16:44:17.802Z,13.77
2022-10-06T16:46:45.371Z,13.76
2022-10-06T16:49:12.875Z,13.72
2022-10-06T16:51:42.237Z,13.65
2022-10-06T16:54:11.513Z,13.75
2022-10-06T16:56:41.059Z,13.71
2022-10-06T16:59:16.716Z,13.83
2022-10-06T17:01:44.587Z,13.57
2022-10-06T17:04:20.642Z,13.51
2022-10-06T17:06:48.730Z,13.84
2022-10-06T17:09:17.822Z,13.80
2022-10-06T17:11:47.540Z,13.72
2022-10-06T17:14:14.535Z,13.65
2022-10-06T17:16:43.644Z,13.53
2022-10-06T17:19:12.680Z,13.52
2022-10-06T17:21:46.265Z,13.49
2022-10-06T17:24:17.979Z,13.61
2022-10-06T17:26:48.168Z,13.59
2022-10-06T17:29:21.521Z,13.41
2022-10-06T17:31:50.752Z,13.61
2022-10-06T17:34:23.616Z,13.54
2022-10-06T17:36:52.752Z,13.42
2022-10-06T17:39:22.670Z,13.49
2022-10-06T17:41:52.546Z,13.46
2022-10-06T17:44:27.003Z,13.44
2022-10-06T17:46:56.634Z,13.54
2022-10-06T17:49:24.924Z,13.55
2022-10-06T17:51:53.776Z,13.37
2022-10-06T17:54:23.375Z,13.38
2022-10-06T17:56:53.360Z,13.45
2022-10-06T17:59:23.402Z,13.30
2022-10-06T18:01:52.245Z,13.18
2022-10-06T18:04:19.695Z,13.14
2022-10-06T18:06:47.886Z,13.15
2022-10-06T18:09:15.878Z,13.18
2022-10-06T18:11:44.424Z,13.01
2022-10-06T18:14:15.375Z,13.15
2022-10-06T18:16:46.522Z,13.08
2022-10-06T18:19:25.460Z,12.92
2022-10-06T18:21:54.691Z,13.02
2022-10-06T18:24:24.368Z,13.00
2022-10-06T18:26:53.443Z,12.99
2022-10-06T18:29:24.242Z,13.02
2022-10-06T18:31:52.726Z,13.01
2022-10-06T18:37:07.326Z,12.84
2022-10-06T18:39:34.307Z,12.81
2022-10-06T18:42:03.871Z,12.83
2022-10-06T18:44:49.115Z,12.75
2022-10-06T18:47:34.367Z,12.87
2022-10-06T18:50:01.370Z,12.80
2022-10-06T18:52:28.370Z,12.82
2022-10-06T18:54:55.341Z,12.78
2022-10-06T18:57:27.278Z,12.71
2022-10-06T18:59:55.165Z,12.64
2022-10-06T19:02:22.409Z,12.52
2022-10-06T19:04:49.598Z,12.57
2022-10-06T19:07:16.588Z,12.51
2022-10-06T19:09:46.434Z,12.65
2022-10-06T19:12:14.384Z,12.64
2022-10-06T19:14:47.596Z,12.57
2022-10-06T19:17:15.501Z,12.56
2022-10-06T19:19:55.352Z,12.51
2022-10-06T19:22:24.735Z,12.57
2022-10-06T19:24:52.640Z,12.33
2022-10-06T19:27:28.965Z,12.51
2022-10-06T19:29:56.935Z,12.15
2022-10-06T19:32:27.421Z,12.48
2022-10-06T19:34:58.000Z,12.22
2022-10-06T19:37:27.182Z,12.38
2022-10-06T19:39:54.320Z,12.28
2022-10-06T19:42:40.650Z,12.36
2022-10-06T19:45:09.592Z,12.19
2022-10-06T19:47:36.597Z,12.10
2022-10-06T19:50:10.328Z,11.98
2022-10-06T19:52:38.432Z,12.24
2022-10-06T19:55:05.748Z,12.07
2022-10-06T19:57:40.009Z,12.21
2022-10-06T20:00:07.831Z,12.09
2022-10-06T20:02:43.159Z,12.27
2022-10-06T20:05:16.786Z,12.24
2022-10-06T20:07:46.042Z,12.06
2022-10-06T20:10:14.262Z,12.29
2022-10-06T20:12:41.673Z,12.33
2022-10-06T20:15:10.098Z,12.23
2022-10-06T20:17:37.847Z,12.15
2022-10-06T20:20:05.140Z,12.35
2022-10-06T20:22:32.013Z,12.35
2022-10-06T20:24:59.029Z,11.90
2022-10-06T20:27:25.980Z,12.17
2022-10-06T20:29:53.913Z,12.23
2022-10-06T20:32:21.511Z,12.24
2022-10-06T20:34:48.392Z,12.22
2022-10-06T20:37:15.425Z,12.15
2022-10-06T20:40:01.081Z,12.20
2022-10-06T20:42:28.085Z,12.23
2022-10-06T20:44:55.007Z,12.22
2022-10-06T20:47:22.755Z,12.27
2022-10-06T20:49:55.397Z,12.11
2022-10-06T20:52:25.197Z,11.89
2022-10-06T20:54:52.141Z,11.88
2022-10-06T20:57:19.187Z,11.93
2022-10-06T20:59:46.303Z,11.83
2022-10-06T21:02:13.534Z,11.58
2022-10-06T21:04:46.132Z,11.54
2022-10-06T21:07:13.204Z,11.64
2022-10-06T21:09:40.443Z,11.56
2022-10-06T21:12:07.411Z,11.45
2022-10-06T21:14:35.323Z,11.34
2022-10-06T21:17:02.223Z,11.48
2022-10-06T21:19:30.297Z,11.51
2022-10-06T21:21:57.316Z,11.53
2022-10-06T21:24:24.419Z,11.53
2022-10-06T21:26:52.883Z,11.34
2022-10-06T21:29:20.929Z,11.48
2022-10-06T21:31:48.454Z,11.44
2022-10-06T21:34:15.555Z,11.28
2022-10-06T21:36:43.942Z,11.13
2022-10-06T21:39:12.159Z,11.47
2022-10-06T21:41:39.982Z,11.50
2022-10-06T21:44:06.938Z,11.58
2022-10-06T21:46:41.671Z,11.53
2022-10-06T21:49:14.289Z,11.33
2022-10-06T21:51:42.714Z,11.15
2022-10-06T21:54:12.410Z,10.75
2022-10-06T21:56:40.230Z,11.02
2022-10-06T21:59:07.925Z,11.16
2022-10-06T22:01:41.366Z,11.19
2022-10-06T22:04:09.177Z,11.14
2022-10-06T22:06:37.065Z,10.80
2022-10-06T22:09:06.046Z,11.09
2022-10-06T22:11:35.429Z,11.00
2022-10-06T22:14:05.376Z,10.81
2022-10-06T22:16:34.463Z,11.07
2022-10-06T22:19:03.067Z,11.12
2022-10-06T22:21:32.494Z,10.85
2022-10-06T22:24:05.714Z,11.02
2022-10-06T22:26:34.820Z,10.70
2022-10-06T22:29:01.761Z,10.60
2022-10-06T22:31:28.842Z,10.75
2022-10-06T22:33:58.117Z,10.94
2022-10-06T22:36:26.786Z,10.80
2022-10-06T22:38:54.701Z,10.89
2022-10-06T22:41:22.153Z,10.78
2022-10-06T22:43:49.473Z,10.55
2022-10-06T22:46:16.447Z,10.75
2022-10-06T22:48:43.443Z,10.45
2022-10-06T22:51:10.368Z,10.59
2022-10-06T22:53:37.352Z,10.70
2022-10-06T22:56:04.265Z,10.63
2022-10-06T22:58:31.360Z,10.52
2022-10-06T23:00:58.327Z,10.56
2022-10-06T23:03:26.057Z,10.14
2022-10-06T23:06:00.710Z,10.19
2022-10-06T23:08:32.673Z,10.24
2022-10-06T23:11:11.285Z,10.34
2022-10-06T23:13:38.284Z,9.96
2022-10-06T23:16:08.305Z,10.35
2022-10-06T23:18:37.613Z,10.27
2022-10-06T23:21:11.366Z,10.22
2022-10-06T23:23:38.301Z,10.14
2022-10-06T23:26:12.382Z,10.22
2022-10-06T23:28:40.188Z,10.00
2022-10-06T23:31:08.954Z,10.14
2022-10-06T23:33:36.425Z,10.05
2022-10-06T23:36:14.424Z,10.21
2022-10-06T23:38:42.448Z,9.92
2022-10-06T23:41:09.392Z,9.94
2022-10-06T23:43:36.600Z,10.23
2022-10-06T23:46:04.278Z,10.26
2022-10-06T23:48:31.469Z,10.17
2022-10-06T23:51:02.762Z,10.18
2022-10-06T23:53:30.964Z,10.10
2022-10-06T23:55:58.372Z,10.09
2022-10-06T23:58:26.189Z,10.17
